PWSweather.com
Personal Weather Stations
Station Observations

AwhituWaiuku, CA 268400

Lat: -37.058, Lon: -174.6346

Elevation: 250

Station Type: Personal

http://www.weather-display.com/windy/gb/grahamsbeach.htm

High Low Average
Temperature 71.7°F22.1°F 64.8°F18.2°F 66.8°F19.3°F
Dew Point 65.5°F18.6°F 62.3°F16.8°F 63.6°F17.6°F
Winds 9.2 mph NE14.8 mph NE 2.3 mph 3.7 mph 6.1 mph 9.8 mph
Wind Gusts 19.6 mph31.5 mph 3.5 mph5.6 mph 10.7 mph17.2 mph
Humidity 94% 75% 90%
Pressure 29.97 in1014.90 in 29.82 in1009.80 in -
Precipitation 0.22 in5.60 in - -
Hour Temp Dew Point Humidity Winds Wind Gusts Pressure Precip Precip Rate Daily Precip Total
12:00 AM 65.5°F18.6°C 62.5°F16.9°C 90% 8.1 mph E13.0 kmh E 11.5 mph18.5 kmh 29.97 in1014.9 mb - 0.00 in0.0 mm 0.00 in0.0 mm
12:30 AM 65.3°F18.5°C 62.3°F16.8°C 90% 8.1 mph E13.0 kmh E 10.4 mph16.7 kmh 29.97 in1014.9 mb - 0.00 in0.0 mm 0.00 in0.0 mm
01:00 AM 65.2°F18.4°C 62.5°F16.9°C 91% 8.1 mph E13.0 kmh E 11.5 mph18.5 kmh 29.96 in1014.6 mb - 0.00 in0.0 mm 0.00 in0.0 mm
01:30 AM 65.2°F18.4°C 62.5°F16.9°C 91% 4.6 mph E7.4 kmh E 9.2 mph14.8 kmh 29.96 in1014.6 mb - 0.00 in0.0 mm 0.00 in0.0 mm
02:00 AM 65.5°F18.6°C 62.8°F17.1°C 91% 5.8 mph E9.3 kmh E 8.1 mph13.0 kmh 29.96 in1014.6 mb - 0.00 in0.0 mm 0.00 in0.0 mm
02:30 AM 65.2°F18.4°C 62.5°F16.9°C 91% 8.1 mph E13.0 kmh E 11.5 mph18.5 kmh 29.95 in1014.2 mb - 0.00 in0.0 mm 0.00 in0.0 mm
03:00 AM 65.3°F18.5°C 62.9°F17.2°C 92% 5.8 mph E9.3 kmh E 9.2 mph14.8 kmh 29.95 in1014.2 mb - 0.00 in0.0 mm 0.00 in0.0 mm
03:30 AM 65.3°F18.5°C 62.9°F17.2°C 92% 5.8 mph E9.3 kmh E 9.2 mph14.8 kmh 29.94 in1013.9 mb - 0.00 in0.0 mm 0.00 in0.0 mm
04:00 AM 65.3°F18.5°C 63.2°F17.3°C 93% 4.6 mph E7.4 kmh E 4.6 mph7.4 kmh 29.94 in1013.9 mb - 0.00 in0.0 mm 0.00 in0.0 mm
04:30 AM 64.9°F18.3°C 62.8°F17.1°C 93% 6.9 mph E11.1 kmh E 8.1 mph13.0 kmh 29.93 in1013.5 mb - 0.00 in0.0 mm 0.00 in0.0 mm
05:00 AM 65.2°F18.4°C 63.1°F17.3°C 93% 6.9 mph E11.1 kmh E 9.2 mph14.8 kmh 29.93 in1013.5 mb - 0.00 in0.0 mm 0.00 in0.0 mm
05:30 AM 65.4°F18.6°C 63.0°F17.2°C 92% 6.9 mph E11.1 kmh E 9.2 mph14.8 kmh 29.93 in1013.5 mb - 0.00 in0.0 mm 0.00 in0.0 mm
12:00 PM 71.7°F22.1°C 63.3°F17.4°C 75% 4.6 mph ENE7.4 kmh ENE 11.5 mph18.5 kmh 29.93 in1013.5 mb - 0.00 in0.0 mm 0.00 in0.0 mm
12:30 PM 71.3°F21.8°C 63.7°F17.6°C 77% 6.9 mph NE11.1 kmh NE 11.5 mph18.5 kmh 29.92 in1013.2 mb - 0.00 in0.0 mm 0.00 in0.0 mm
01:00 PM 71.1°F21.7°C 64.3°F17.9°C 79% 4.6 mph NE7.4 kmh NE 11.5 mph18.5 kmh 29.91 in1012.9 mb - 0.00 in0.0 mm 0.00 in0.0 mm
01:30 PM 70.2°F21.2°C 63.4°F17.4°C 79% 9.2 mph NE14.8 kmh NE 13.8 mph22.2 kmh 29.90 in1012.5 mb - 0.00 in0.0 mm 0.00 in0.0 mm
02:30 PM 70.6°F21.4°C 65.1°F18.4°C 83% 6.9 mph ENE11.1 kmh ENE 12.7 mph20.4 kmh 29.88 in1011.9 mb - 0.00 in0.0 mm 0.00 in0.0 mm
03:00 PM 68.3°F20.2°C 65.3°F18.5°C 90% 5.8 mph ENE9.3 kmh ENE 11.5 mph18.5 kmh 29.87 in1011.5 mb - 0.14 in3.6 mm 0.14 in3.6 mm
03:30 PM 68.9°F20.5°C 65.5°F18.6°C 89% 6.9 mph N11.1 kmh N 13.8 mph22.2 kmh 29.87 in1011.5 mb - 0.01 in0.3 mm 0.15 in3.8 mm
04:00 PM 68.3°F20.2°C 64.6°F18.1°C 88% 8.1 mph NE13.0 kmh NE 12.7 mph20.4 kmh 29.87 in1011.5 mb - 0.00 in0.0 mm 0.15 in3.8 mm
04:30 PM 68.6°F20.3°C 65.2°F18.4°C 89% 5.8 mph ENE9.3 kmh ENE 16.1 mph25.9 kmh 29.86 in1011.2 mb - 0.03 in0.8 mm 0.18 in4.6 mm
05:00 PM 67.9°F19.9°C 64.5°F18.1°C 89% 8.1 mph NNE13.0 kmh NNE 15.0 mph24.1 kmh 29.86 in1011.2 mb - 0.00 in0.0 mm 0.18 in4.6 mm
05:30 PM 67.7°F19.8°C 64.6°F18.1°C 90% 2.3 mph E3.7 kmh E 3.5 mph5.6 kmh 29.85 in1010.8 mb - 0.00 in0.0 mm 0.18 in4.6 mm
06:00 PM 67.4°F19.7°C 64.4°F18.0°C 90% 6.9 mph NE11.1 kmh NE 19.6 mph31.5 kmh 29.85 in1010.8 mb - 0.00 in0.0 mm 0.18 in4.6 mm
06:30 PM 67.6°F19.8°C 64.2°F17.9°C 89% 3.5 mph NE5.6 kmh NE 10.4 mph16.7 kmh 29.85 in1010.8 mb - 0.00 in0.0 mm 0.18 in4.6 mm
07:30 PM 67.0°F19.4°C 64.3°F17.9°C 91% 6.9 mph ENE11.1 kmh ENE 11.5 mph18.5 kmh 29.86 in1011.2 mb - 0.02 in0.5 mm 0.21 in5.3 mm
08:30 PM 65.6°F18.7°C 63.8°F17.7°C 94% 5.8 mph E9.3 kmh E 11.5 mph18.5 kmh 29.85 in1010.8 mb - 0.01 in0.3 mm 0.30 in7.6 mm
09:00 PM 64.9°F18.3°C 63.1°F17.3°C 94% 5.8 mph E9.3 kmh E 11.5 mph18.5 kmh 29.84 in1010.5 mb - 0.00 in0.0 mm 0.30 in7.6 mm
09:30 PM 64.8°F18.2°C 63.0°F17.2°C 94% 2.3 mph ENE3.7 kmh ENE 9.2 mph14.8 kmh 29.85 in1010.8 mb - 0.00 in0.0 mm 0.30 in7.6 mm
10:00 PM 65.1°F18.4°C 63.3°F17.4°C 94% 3.5 mph E5.6 kmh E 4.6 mph7.4 kmh 29.84 in1010.5 mb - 0.01 in0.3 mm 0.31 in7.9 mm
10:30 PM 65.3°F18.5°C 63.5°F17.5°C 94% 3.5 mph E5.6 kmh E 9.2 mph14.8 kmh 29.84 in1010.5 mb - 0.00 in0.0 mm 0.31 in7.9 mm
11:00 PM 65.2°F18.4°C 63.4°F17.4°C 94% 4.6 mph ENE7.4 kmh ENE 9.2 mph14.8 kmh 29.82 in1009.8 mb - 0.00 in0.0 mm 0.22 in5.6 mm
11:30 PM 65.2°F18.4°C 63.4°F17.4°C 94% 8.1 mph E13.0 kmh E 10.4 mph16.7 kmh 29.82 in1009.8 mb - 0.00 in0.0 mm 0.22 in5.6 mm